FW6193 Weather Reports


Display with metric or nautical units.
time (UTC)temp
F
wind
direction
speed
MPH
gust
MPH
rain 1hr
in
rain 24hr
in
rain mn
in
humidity
%
barometer
mb
20260506211530 66 0 0.0 4.0 0.00 0.15 0.15 82 1007.6
20260506211012 66 0 0.0 1.0 0.00 0.15 0.15 83 1007.4
20260506210513 66 0 0.0 4.0 0.00 0.15 0.15 85 1007.4
20260506210036 66 0 0.0 4.0 0.00 0.15 0.15 85 1007.3
20260506205511 65 60 0.0 2.0 0.00 0.15 0.15 85 1007.3
20260506205056 65 0 0.0 1.0 0.00 0.15 0.15 85 1007.5
20260506204547 65 0 0.0 1.0 0.00 0.15 0.15 84 1007.4
20260506204017 66 0 0.0 3.0 0.00 0.15 0.15 85 1007.4
20260506203513 66 0 0.0 3.0 0.00 0.15 0.15 86 1007.3
20260506203032 65 0 0.0 3.0 0.00 0.15 0.15 86 1007.3
20260506202513 65 0 0.0 0.0 0.00 0.15 0.15 88 1007.2
20260506202012 64 0 0.0 2.0 0.00 0.15 0.15 86 1007.3
20260506201535 64 0 0.0 2.0 0.00 0.15 0.15 87 1007.2
20260506201014 64 61 0.0 4.0 0.00 0.15 0.15 86 1007.4
20260506200512 64 0 0.0 4.0 0.00 0.15 0.15 86 1007.5
20260506200034 64 0 0.0 3.0 0.00 0.15 0.15 88 1007.4
20260506195513 63 0 0.0 3.0 0.00 0.15 0.15 88 1007.5
20260506195019 63 0 0.0 3.0 0.00 0.15 0.15 88 1007.4
20260506194534 63 0 0.0 3.0 0.00 0.15 0.15 88 1007.5
20260506194013 63 0 0.0 3.0 0.00 0.15 0.15 88 1007.7
20260506193521 63 0 0.0 8.0 0.00 0.15 0.15 89 1007.8
20260506193030 63 0 0.0 8.0 0.00 0.15 0.15 88 1007.8
20260506192516 62 0 0.0 4.0 0.00 0.15 0.15 89 1007.7
20260506192011 62 0 0.0 4.0 0.00 0.15 0.15 90 1007.7
20260506191659 62 0 0.0 4.0 0.00 0.15 0.15 90 1007.8
20260506191541 62 0 0.0 4.0 0.00 0.15 0.15 90 1007.8
20260506191015 61 0 0.0 4.0 0.00 0.15 0.15 90 1007.9
20260506190516 61 0 0.0 4.0 0.00 0.15 0.15 91 1008.1
20260506190030 61 0 0.0 5.0 0.00 0.15 0.15 91 1008.0
20260506185752 61 0 0.0 5.0 0.00 0.15 0.15 90 1008.1
20260506185056 61 0 0.0 5.0 0.00 0.15 0.15 91 1008.1
20260506184013 61 80 0.0 5.0 0.00 0.15 0.15 91 1008.1
20260506183558 60 80 0.0 5.0 0.00 0.15 0.15 91 1008.2
20260506183107 60 0 0.0 4.0 0.00 0.15 0.15 92 1008.3
20260506182604 60 81 1.0 8.0 0.00 0.15 0.15 92 1008.2
20260506182016 60 0 1.0 8.0 0.00 0.15 0.15 92 1008.5
20260506181535 60 0 1.0 6.0 0.00 0.15 0.15 92 1008.3
20260506181019 60 44 1.0 7.0 0.00 0.15 0.15 92 1008.3
20260506180519 60 44 1.0 7.0 0.00 0.15 0.15 92 1008.4
20260506180039 60 56 0.0 6.0 0.00 0.15 0.15 93 1008.5
20260506175512 60 69 1.0 8.0 0.00 0.15 0.15 93 1008.5
20260506175012 60 0 1.0 8.0 0.00 0.15 0.15 92 1008.5
20260506174529 60 51 2.0 9.0 0.00 0.15 0.15 92 1008.5
20260506174017 60 0 1.0 11.0 0.00 0.15 0.15 92 1008.5
20260506173510 60 30 3.0 11.0 0.00 0.15 0.15 93 1008.6
20260506173031 60 0 1.0 9.0 0.00 0.15 0.15 93 1008.6
20260506172510 60 0 0.0 5.0 0.00 0.15 0.15 93 1008.5
20260506172011 60 285 0.0 5.0 0.00 0.15 0.15 93 1008.5
20260506171538 60 267 0.0 5.0 0.00 0.15 0.15 93 1008.5
20260506171015 60 0 1.0 7.0 0.01 0.15 0.15 92 1008.7
20260506170514 60 52 1.0 7.0 0.02 0.15 0.15 92 1008.8
20260506170027 60 0 1.0 7.0 0.02 0.15 0.15 93 1008.7
20260506165511 60 300 1.0 5.0 0.02 0.15 0.15 93 1008.7
20260506165334 60 0 0.0 5.0 0.03 0.15 0.15 93 1008.7
20260506165016 60 0 0.0 5.0 0.03 0.15 0.15 93 1008.7
20260506164824 60 0 1.0 5.0 0.03 0.15 0.15 93 1008.6
20260506164013 60 0 1.0 8.0 0.04 0.15 0.15 93 1008.7
20260506163828 61 0 2.0 9.0 0.06 0.15 0.15 93 1008.5
20260506163036 61 0 0.0 9.0 0.07 0.15 0.15 93 1008.6
20260506162709 60 17 1.0 10.0 0.08 0.15 0.15 93 1008.7
20260506162534 60 17 1.0 10.0 0.08 0.15 0.15 93 1008.7
20260506162015 60 18 1.0 10.0 0.08 0.15 0.15 93 1008.7
20260506161606 60 33 0.0 10.0 0.09 0.15 0.15 93 1008.7
20260506161016 60 0 3.0 10.0 0.09 0.14 0.14 93 1008.9
20260506160624 60 0 1.0 9.0 0.08 0.13 0.13 93 1009.0
20260506160413 60 9 2.0 9.0 0.10 0.13 0.13 93 1009.4
20260506160000 59 0 0.0 4.0 0.10 0.13 0.13 93 1009.6
20260506155254 59 0 0.0 4.0 0.09 0.12 0.12 92 1009.8
20260506154532 59 37 1.0 3.0 0.10 0.12 0.12 92 1009.8
20260506154229 59 34 0.0 8.0 0.09 0.11 0.11 92 1010.1
20260506153512 59 0 0.0 8.0 0.08 0.09 0.09 91 1010.0
20260506153029 60 360 0.0 8.0 0.07 0.08 0.08 91 1010.2
20260506152657 60 46 0.0 3.0 0.06 0.07 0.07 91 1010.2
20260506152515 60 46 0.0 3.0 0.06 0.07 0.07 91 1010.2
20260506152027 60 309 0.0 3.0 0.06 0.07 0.07 90 1009.9
20260506151535 60 5 0.0 2.0 0.05 0.06 0.06 90 1010.0
20260506151020 60 10 0.0 2.0 0.05 0.05 0.05 89 1009.8
20260506150518 60 0 0.0 5.0 0.04 0.04 0.04 89 1009.6
20260506150033 60 0 0.0 9.0 0.03 0.03 0.03 88 1009.8
20260506145510 61 0 2.0 9.0 0.03 0.03 0.03 88 1009.8
20260506145012 61 0 1.0 5.0 0.03 0.03 0.03 88 1009.8
20260506144532 61 28 1.0 5.0 0.02 0.02 0.02 88 1009.8
20260506144018 61 5 0.0 8.0 0.02 0.02 0.02 87 1009.9
20260506143511 61 12 1.0 9.0 0.01 0.01 0.01 87 1009.8
20260506143106 61 0 1.0 9.0 0.01 0.01 0.01 86 1009.6
20260506142512 62 336 0.0 8.0 0.01 0.01 0.01 84 1009.7
20260506142055 62 0 0.0 5.0 0.01 0.01 0.01 83 1009.9
20260506141529 63 0 0.0 6.0 0.01 0.01 0.01 82 1010.0
20260506141016 63 42 0.0 6.0 0.00 0.00 0.00 80 1010.0
20260506140521 63 0 1.0 7.0 0.00 0.00 0.00 79 1009.9
20260506140036 64 73 1.0 7.0 0.00 0.00 0.00 78 1009.8
20260506135512 64 0 0.0 7.0 0.00 0.00 0.00 78 1009.7
20260506135009 64 319 2.0 7.0 0.00 0.00 0.00 77 1009.8
20260506134531 64 0 0.0 4.0 0.00 0.00 0.00 78 1009.7
20260506134014 64 0 0.0 7.0 0.00 0.00 0.00 78 1009.7
20260506133510 64 0 0.0 11.0 0.00 0.00 0.00 78 1009.5
20260506133031 64 57 1.0 11.0 0.00 0.00 0.00 78 1009.7
20260506132516 64 9 3.0 11.0 0.00 0.00 0.00 77 1009.8
20260506132014 64 0 1.0 9.0 0.00 0.00 0.00 77 1009.7
20260506131529 64 57 3.0 9.0 0.00 0.00 0.00 76 1009.7
20260506131011 64 0 2.0 9.0 0.00 0.00 0.00 76 1009.8
20260506130515 64 168 2.0 9.0 0.00 0.00 0.00 77 1009.6
20260506130030 64 0 0.0 9.0 0.00 0.00 0.00 76 1009.9
20260506125521 64 0 1.0 9.0 0.00 0.00 0.00 76 1009.9
20260506125016 64 62 1.0 6.0 0.00 0.00 0.00 76 1010.1
20260506124529 64 0 0.0 9.0 0.00 0.00 0.00 76 1010.2
20260506124010 65 0 1.0 9.0 0.00 0.00 0.00 75 1010.0
20260506123510 65 77 0.0 9.0 0.00 0.00 0.00 76 1009.8
20260506123029 64 342 1.0 11.0 0.00 0.00 0.00 76 1010.0
20260506122515 64 333 2.0 11.0 0.00 0.00 0.00 76 1009.9
20260506122013 64 5 2.0 9.0 0.00 0.00 0.00 76 1009.9
20260506121533 64 74 2.0 7.0 0.00 0.00 0.00 76 1009.8
20260506121015 64 24 1.0 7.0 0.00 0.00 0.00 76 1009.8
20260506120518 64 0 0.0 12.0 0.00 0.00 0.00 77 1009.8
20260506120032 64 12 1.0 12.0 0.00 0.00 0.00 77 1009.6
20260506115511 64 352 2.0 12.0 0.00 0.00 0.00 77 1009.6
20260506115014 64 26 1.0 8.0 0.00 0.00 0.00 77 1009.7
20260506114540 64 0 1.0 6.0 0.00 0.00 0.00 77 1009.7
20260506114012 63 48 1.0 7.0 0.00 0.00 0.00 77 1009.7
20260506113512 63 41 1.0 9.0 0.00 0.00 0.00 77 1009.4
20260506113030 63 67 3.0 11.0 0.00 0.00 0.00 77 1009.5
20260506112522 63 0 1.0 11.0 0.00 0.00 0.00 77 1009.5
20260506112012 63 0 1.0 8.0 0.00 0.00 0.00 78 1009.5
20260506111534 63 17 1.0 9.0 0.00 0.00 0.00 78 1009.4
20260506111055 63 36 2.0 9.0 0.00 0.00 0.00 78 1009.4
20260506111012 63 5 0.0 10.0 0.00 0.00 0.00 78 1009.4
20260506105626 63 5 2.0 10.0 0.00 0.00 0.00 78 1009.3
20260506105010 63 0 0.0 5.0 0.00 0.00 0.00 78 1009.4
20260506104359 63 39 2.0 5.0 0.00 0.00 0.00 78 1009.4
20260506104007 63 0 1.0 7.0 0.00 0.00 0.00 78 1009.3
20260506103407 63 44 2.0 7.0 0.00 0.00 0.00 78 1009.4
20260506103046 63 44 2.0 7.0 0.00 0.00 0.00 78 1009.4
20260506102909 63 22 1.0 7.0 0.00 0.00 0.00 78 1009.2
20260506102509 63 44 0.0 6.0 0.00 0.00 0.00 78 1009.2
20260506101547 63 0 0.0 7.0 0.00 0.00 0.00 78 1009.3
20260506101015 63 45 1.0 7.0 0.00 0.00 0.00 77 1009.2
20260506100513 63 0 0.0 10.0 0.00 0.00 0.00 77 1009.1
20260506100032 63 0 3.0 10.0 0.00 0.00 0.00 77 1009.3
20260506095522 63 46 2.0 8.0 0.00 0.00 0.00 77 1009.4
20260506095011 63 0 2.0 5.0 0.00 0.00 0.00 77 1009.3
20260506094528 64 40 0.0 8.0 0.00 0.00 0.00 77 1009.4
20260506094013 63 0 1.0 8.0 0.00 0.00 0.00 77 1009.4
20260506093514 64 45 1.0 9.0 0.00 0.00 0.00 77 1009.4
20260506093028 64 22 2.0 10.0 0.00 0.00 0.00 76 1009.3
20260506092514 64 0 2.0 10.0 0.00 0.00 0.00 76 1009.4
20260506092014 64 5 1.0 5.0 0.00 0.00 0.00 76 1009.4
20260506091605 64 0 0.0 5.0 0.00 0.00 0.00 76 1009.2
20260506091533 64 0 0.0 5.0 0.00 0.00 0.00 76 1009.2
20260506091014 64 0 1.0 6.0 0.00 0.00 0.00 76 1009.3
20260506090512 64 22 1.0 6.0 0.00 0.00 0.00 76 1009.3
20260506090122 64 18 1.0 6.0 0.00 0.00 0.00 76 1009.3
20260506090043 64 18 1.0 6.0 0.00 0.00 0.00 76 1009.3
20260506085525 64 24 1.0 5.0 0.00 0.00 0.00 76 1009.4
20260506085129 64 30 0.0 4.0 0.00 0.00 0.00 76 1009.4
20260506084530 64 18 0.0 4.0 0.00 0.00 0.00 76 1009.4
20260506084009 64 0 0.0 9.0 0.00 0.00 0.00 76 1009.5
20260506083512 64 39 1.0 9.0 0.00 0.00 0.00 76 1009.5
20260506083108 64 35 2.0 10.0 0.00 0.00 0.00 76 1009.5
20260506082509 64 259 2.0 10.0 0.00 0.00 0.00 76 1009.4
20260506082014 64 13 1.0 8.0 0.00 0.00 0.00 76 1009.4
20260506081655 64 5 2.0 8.0 0.00 0.00 0.00 76 1009.6
20260506081013 64 5 0.0 5.0 0.00 0.00 0.00 76 1009.5
20260506080726 64 5 1.0 5.0 0.00 0.00 0.00 76 1009.6
20260506073024 65 0 0.0 8.0 0.00 0.00 0.00 74 1009.7
20260506072306 65 0 2.0 8.0 0.00 0.00 0.00 74 1009.7
20260506071128 65 344 1.0 8.0 0.00 0.00 0.00 74 1009.7
20260506070924 65 0 0.0 8.0 0.00 0.00 0.00 74 1009.6
20260506062013 65 72 0.0 6.0 0.00 0.00 0.00 72 1010.1
20260506061534 65 35 0.0 6.0 0.00 0.00 0.00 72 1010.1
20260506061016 65 0 1.0 9.0 0.00 0.00 0.00 71 1010.0
20260506060708 65 0 0.0 9.0 0.00 0.00 0.00 71 1010.0
20260506051021 65 0 0.0 5.0 0.00 0.00 0.00 70 1010.4
20260506050521 65 352 0.0 5.0 0.00 0.00 0.00 70 1010.6
20260506050133 65 0 0.0 4.0 0.00 0.00 0.00 70 1010.5
20260506045009 65 16 0.0 6.0 0.00 0.00 0.00 70 1010.5
20260506044551 65 0 0.0 6.0 0.00 0.00 0.00 69 1010.6
20260506044021 65 0 0.0 3.0 0.00 0.00 0.00 69 1010.7
20260506043521 65 0 0.0 2.0 0.00 0.00 0.00 68 1010.6
20260506043028 65 0 0.0 4.0 0.00 0.00 0.00 68 1010.6
20260506042813 65 0 0.0 4.0 0.00 0.00 0.00 67 1010.6
20260506041537 66 0 0.0 6.0 0.00 0.00 0.00 67 1010.5
20260506041311 66 0 1.0 6.0 0.00 0.00 0.00 67 1010.5
20260506040408 66 22 1.0 6.0 0.00 0.00 0.00 66 1010.6
20260506035511 66 345 1.0 6.0 0.00 0.00 0.00 66 1010.6
20260506035100 66 0 0.0 5.0 0.00 0.00 0.00 65 1010.5
20260506034722 66 5 1.0 5.0 0.00 0.00 0.00 65 1010.6
20260506034019 66 18 1.0 5.0 0.00 0.00 0.00 65 1010.5
20260506033514 67 0 0.0 6.0 0.00 0.00 0.00 64 1010.5
20260506033031 67 0 1.0 6.0 0.00 0.00 0.00 64 1010.4
20260506032816 67 351 0.0 10.0 0.00 0.00 0.00 63 1010.3
20260506032010 67 0 1.0 10.0 0.00 0.00 0.00 62 1010.4
20260506031556 68 0 1.0 7.0 0.00 0.00 0.00 62 1010.4
20260506031301 68 5 1.0 7.0 0.00 0.00 0.00 62 1010.3
20260506030513 68 5 1.0 8.0 0.00 0.00 0.00 61 1010.5
20260506030033 68 0 1.0 8.0 0.00 0.00 0.00 60 1010.4
20260506025625 68 0 1.0 8.0 0.00 0.00 0.00 60 1010.3
20260506025015 68 0 0.0 9.0 0.00 0.00 0.00 59 1010.3
20260506024527 69 352 2.0 9.0 0.00 0.00 0.00 59 1010.4
20260506024010 69 0 2.0 9.0 0.00 0.00 0.00 59 1010.5
20260506023616 69 0 1.0 9.0 0.00 0.00 0.00 59 1010.4
20260506023029 69 0 0.0 8.0 0.00 0.00 0.00 58 1010.5
20260506022514 69 40 2.0 8.0 0.00 0.00 0.00 57 1010.5
20260506022056 69 26 0.0 6.0 0.00 0.00 0.00 57 1010.5
20260506021528 69 0 0.0 8.0 0.00 0.00 0.00 57 1010.4
20260506021010 69 18 0.0 10.0 0.00 0.00 0.00 56 1010.3
20260506020513 70 0 0.0 10.0 0.00 0.00 0.00 56 1010.4
20260506020041 70 0 0.0 5.0 0.00 0.00 0.00 55 1010.4
20260506015514 70 5 0.0 5.0 0.00 0.00 0.00 54 1010.3
20260506015056 70 32 0.0 6.0 0.00 0.00 0.00 54 1010.2
20260506014544 70 0 0.0 6.0 0.00 0.00 0.00 54 1010.3
20260506014009 71 346 1.0 8.0 0.00 0.00 0.00 53 1010.2
20260506013513 71 0 2.0 8.0 0.00 0.00 0.00 53 1010.1
20260506013030 71 275 0.0 6.0 0.00 0.00 0.00 52 1010.1
20260506012510 71 0 1.0 8.0 0.00 0.00 0.00 52 1010.1
20260506012012 71 0 1.0 8.0 0.00 0.00 0.00 52 1009.9
20260506011528 72 0 0.0 9.0 0.00 0.00 0.00 51 1009.8
20260506011055 72 0 0.0 9.0 0.00 0.00 0.00 50 1009.8
20260506010513 72 344 0.0 9.0 0.00 0.00 0.00 50 1009.8
20260506010030 72 0 0.0 11.0 0.00 0.00 0.00 50 1009.8
20260506005513 72 343 0.0 11.0 0.00 0.00 0.00 49 1009.7
20260506005015 72 0 1.0 11.0 0.00 0.00 0.00 50 1009.5
20260506004537 73 0 0.0 9.0 0.00 0.00 0.00 49 1009.5
20260506004016 73 57 2.0 9.0 0.00 0.00 0.00 49 1009.7
20260506003514 73 0 2.0 7.0 0.00 0.00 0.00 49 1009.6
20260506003031 73 0 0.0 6.0 0.00 0.00 0.00 48 1009.6
20260506002520 73 15 1.0 6.0 0.00 0.00 0.00 48 1009.5
20260506002013 73 13 0.0 10.0 0.00 0.00 0.00 48 1009.3
20260506001528 74 0 1.0 11.0 0.00 0.00 0.00 47 1009.3
20260506001124 74 0 0.0 11.0 0.00 0.00 0.00 48 1009.3
20260506000514 74 0 0.0 6.0 0.00 0.00 0.00 47 1009.4
20260506000036 74 0 0.0 6.0 0.00 0.00 0.00 46 1009.3
20260505235603 74 0 0.0 6.0 0.00 0.00 0.00 45 1009.2
20260505235031 74 0 0.0 6.0 0.00 0.00 0.00 45 1009.1
20260505234819 75 0 0.0 5.0 0.00 0.00 0.00 44 1009.1
20260505234014 75 0 0.0 8.0 0.00 0.00 0.00 44 1009.0
20260505233648 75 51 0.0 8.0 0.00 0.00 0.00 44 1008.8
20260505233059 75 0 0.0 6.0 0.00 0.00 0.00 44 1008.9
20260505232609 75 0 0.0 6.0 0.00 0.00 0.00 44 1009.0
20260505232106 75 0 0.0 4.0 0.00 0.00 0.00 44 1009.1
20260505231629 76 0 0.0 6.0 0.00 0.00 0.00 44 1009.1
20260505231547 76 0 0.0 6.0 0.00 0.00 0.00 44 1009.1
20260505231011 76 0 0.0 6.0 0.00 0.00 0.00 43 1008.9
20260505230514 76 0 0.0 5.0 0.00 0.00 0.00 44 1008.9
20260505230036 76 0 0.0 10.0 0.00 0.00 0.00 43 1008.9
20260505225511 76 0 1.0 10.0 0.00 0.00 0.00 43 1009.0
20260505225012 76 285 0.0 5.0 0.00 0.00 0.00 43 1008.8
20260505224538 76 83 0.0 10.0 0.00 0.00 0.00 43 1008.8
20260505224014 77 0 0.0 10.0 0.00 0.00 0.00 44 1008.8
20260505223517 77 38 0.0 6.0 0.00 0.00 0.00 43 1008.8
20260505223040 77 0 1.0 7.0 0.00 0.00 0.00 42 1008.8
20260505222515 77 342 1.0 11.0 0.00 0.00 0.00 42 1008.9
20260505222016 77 0 2.0 11.0 0.00 0.00 0.00 41 1008.9
20260505221529 77 0 2.0 11.0 0.00 0.00 0.00 41 1008.9
20260505221012 77 18 2.0 11.0 0.00 0.00 0.00 41 1008.8
20260505220510 77 17 2.0 10.0 0.00 0.00 0.00 41 1008.8
20260505220037 78 61 2.0 9.0 0.00 0.00 0.00 41 1008.7
20260505215515 78 0 0.0 14.0 0.00 0.00 0.00 43 1008.6
20260505215012 78 0 2.0 14.0 0.00 0.00 0.00 41 1008.7
20260505214547 78 5 2.0 8.0 0.00 0.00 0.00 41 1008.5
20260505214010 78 0 0.0 8.0 0.00 0.00 0.00 41 1008.7
20260505213510 78 0 0.0 6.0 0.00 0.00 0.00 41 1008.7
20260505213048 79 0 0.0 9.0 0.00 0.00 0.00 41 1008.8
20260505212513 79 0 1.0 9.0 0.00 0.00 0.00 39 1008.7
20260505212014 79 63 2.0 9.0 0.00 0.00 0.00 40 1008.7
20260505211823 78 0 0.0 8.0 0.00 0.00 0.00 40 1008.8